createdAt,value
2022-09-28T00:01:17.529Z,11.13
2022-09-28T00:03:45.896Z,7.32
2022-09-28T00:06:16.075Z,7.32
2022-09-28T00:08:44.051Z,9.18
2022-09-28T00:11:16.227Z,7.07
2022-09-28T00:13:46.107Z,6.57
2022-09-28T00:16:16.892Z,5.97
2022-09-28T00:18:45.659Z,6.88
2022-09-28T00:21:15.776Z,10.48
2022-09-28T00:23:58.603Z,6.85
2022-09-28T00:26:28.572Z,6.93
2022-09-28T00:28:58.545Z,6.65
2022-09-28T00:31:28.116Z,6.15
2022-09-28T00:33:56.966Z,7.28
2022-09-28T00:36:27.121Z,8.43
2022-09-28T00:38:56.407Z,7.63
2022-09-28T00:41:25.247Z,6.20
2022-09-28T00:43:54.937Z,7.40
2022-09-28T00:46:32.087Z,5.32
2022-09-28T00:49:04.245Z,7.20
2022-09-28T00:51:33.600Z,7.18
2022-09-28T00:54:05.325Z,6.03
2022-09-28T00:56:35.612Z,5.70
2022-09-28T00:59:05.763Z,6.35
2022-09-28T01:01:33.645Z,8.80
2022-09-28T01:04:04.880Z,5.78
2022-09-28T01:06:35.796Z,6.55
2022-09-28T01:09:07.736Z,6.93
2022-09-28T01:11:39.020Z,5.97
2022-09-28T01:14:11.564Z,6.95
2022-09-28T01:16:43.263Z,5.80
2022-09-28T01:19:27.593Z,5.45
2022-09-28T01:22:00.999Z,7.18
2022-09-28T01:24:43.178Z,6.30
2022-09-28T01:27:20.996Z,6.05
2022-09-28T01:29:55.952Z,7.43
2022-09-28T01:32:37.402Z,9.07
2022-09-28T01:35:11.809Z,7.30
2022-09-28T01:37:48.513Z,9.85
2022-09-28T01:40:18.233Z,11.45
2022-09-28T01:42:50.953Z,14.18
2022-09-28T01:45:24.749Z,7.22
2022-09-28T01:47:55.232Z,7.25
2022-09-28T01:50:26.532Z,12.95
2022-09-28T01:53:01.074Z,23.63
2022-09-28T01:55:33.408Z,7.73
2022-09-28T01:58:06.830Z,8.53
2022-09-28T02:00:37.226Z,40.03
2022-09-28T02:03:12.514Z,7.93
2022-09-28T02:05:43.163Z,17.97
2022-09-28T02:08:15.884Z,12.97
2022-09-28T02:10:47.431Z,13.65
2022-09-28T02:13:21.947Z,7.07
2022-09-28T02:15:54.093Z,13.27
2022-09-28T02:18:22.078Z,9.87
2022-09-28T02:20:54.098Z,16.40
2022-09-28T02:23:25.582Z,6.87
2022-09-28T02:25:59.415Z,13.20
2022-09-28T02:28:28.842Z,9.23
2022-09-28T02:30:57.131Z,26.52
2022-09-28T02:33:31.433Z,6.88
2022-09-28T02:36:01.027Z,24.50
2022-09-28T02:38:28.922Z,11.07
2022-09-28T02:41:05.846Z,27.90
2022-09-28T02:43:48.092Z,8.83
2022-09-28T02:46:28.279Z,10.27
2022-09-28T02:49:24.378Z,29.52
2022-09-28T02:52:09.464Z,10.02
2022-09-28T02:55:11.598Z,8.40
2022-09-28T02:57:50.556Z,12.20
2022-09-28T03:00:22.866Z,12.73
2022-09-28T03:02:58.427Z,10.00
2022-09-28T03:05:34.256Z,9.33
2022-09-28T03:08:04.950Z,7.57
2022-09-28T03:10:40.004Z,12.03
2022-09-28T03:13:09.332Z,9.20
2022-09-28T03:15:38.947Z,9.03
2022-09-28T03:18:06.979Z,10.17
2022-09-28T03:20:35.292Z,10.57
2022-09-28T03:23:23.819Z,7.87
2022-09-28T03:25:51.379Z,9.90
2022-09-28T03:28:19.512Z,8.93
2022-09-28T03:30:48.741Z,8.25
2022-09-28T03:33:17.227Z,9.57
2022-09-28T03:35:47.876Z,8.23
2022-09-28T03:38:15.798Z,7.93
2022-09-28T03:40:43.775Z,8.32
2022-09-28T03:43:11.727Z,8.15
2022-09-28T03:45:39.639Z,7.63
2022-09-28T03:48:09.012Z,7.88
2022-09-28T03:50:36.964Z,10.50
2022-09-28T03:53:05.416Z,8.57
2022-09-28T03:55:33.738Z,7.28
2022-09-28T03:58:01.646Z,10.75
2022-09-28T04:00:29.963Z,7.72
2022-09-28T04:02:57.865Z,7.65
2022-09-28T04:05:27.154Z,8.25
2022-09-28T04:07:57.876Z,7.07
2022-09-28T04:10:26.143Z,8.90
2022-09-28T04:12:55.901Z,9.00
2022-09-28T04:15:24.445Z,11.77
2022-09-28T04:17:52.808Z,7.72
2022-09-28T04:20:20.814Z,6.97
2022-09-28T04:22:50.451Z,8.02
2022-09-28T04:25:18.435Z,7.47
2022-09-28T04:28:03.754Z,8.35
2022-09-28T04:30:31.683Z,7.57
2022-09-28T04:32:59.607Z,7.18
2022-09-28T04:35:27.746Z,6.80
2022-09-28T04:37:57.216Z,7.20
2022-09-28T04:40:25.188Z,8.18
2022-09-28T04:42:56.642Z,11.32
2022-09-28T04:45:26.138Z,9.80
2022-09-28T04:47:54.638Z,12.23
2022-09-28T04:50:22.646Z,9.65
2022-09-28T04:52:50.599Z,9.77
2022-09-28T04:55:20.673Z,9.10
2022-09-28T04:57:48.581Z,6.20
2022-09-28T05:00:17.282Z,8.10
2022-09-28T05:02:45.639Z,8.40
2022-09-28T05:05:13.768Z,8.43
2022-09-28T05:07:42.040Z,7.45
2022-09-28T05:10:10.235Z,8.27
2022-09-28T05:12:39.674Z,11.20
2022-09-28T05:15:08.295Z,10.38
2022-09-28T05:17:36.562Z,8.93
2022-09-28T05:20:05.242Z,9.35
2022-09-28T05:22:34.265Z,10.88
2022-09-28T05:25:02.981Z,11.00
2022-09-28T05:27:30.851Z,9.35
2022-09-28T05:30:00.150Z,14.52
2022-09-28T05:32:28.053Z,10.98
2022-09-28T05:34:56.252Z,11.15
2022-09-28T05:37:24.194Z,9.85
2022-09-28T05:39:52.157Z,9.85
2022-09-28T05:42:20.091Z,10.63
2022-09-28T05:44:47.983Z,11.02
2022-09-28T05:47:17.292Z,16.08
2022-09-28T05:49:45.431Z,12.57
2022-09-28T05:52:13.285Z,13.05
2022-09-28T05:54:41.200Z,13.02
2022-09-28T05:57:09.199Z,11.45
2022-09-28T05:59:37.140Z,11.48
2022-09-28T06:02:06.401Z,12.27
2022-09-28T06:04:35.704Z,11.85
2022-09-28T06:07:03.822Z,11.30
2022-09-28T06:09:31.946Z,12.05
2022-09-28T06:12:00.339Z,11.77
2022-09-28T06:14:28.566Z,10.57
2022-09-28T06:16:56.528Z,11.50
2022-09-28T06:19:24.462Z,11.35
2022-09-28T06:21:54.827Z,10.25
2022-09-28T06:24:22.736Z,11.85
2022-09-28T06:26:50.622Z,12.98
2022-09-28T06:29:19.750Z,11.10
2022-09-28T06:31:48.408Z,12.57
2022-09-28T06:34:16.786Z,15.18
2022-09-28T06:36:44.805Z,13.02
2022-09-28T06:39:14.187Z,12.65
2022-09-28T06:41:42.605Z,13.38
2022-09-28T06:44:10.620Z,12.45
2022-09-28T06:46:40.201Z,12.13
2022-09-28T06:49:09.307Z,12.98
2022-09-28T06:51:37.741Z,13.10
2022-09-28T06:54:05.857Z,11.18
2022-09-28T06:56:35.204Z,12.00
2022-09-28T06:59:03.155Z,11.05
2022-09-28T07:01:31.242Z,11.13
2022-09-28T07:04:01.912Z,10.85
2022-09-28T07:06:31.482Z,12.15
2022-09-28T07:09:21.498Z,10.95
2022-09-28T07:11:52.731Z,11.95
2022-09-28T07:14:40.187Z,12.25
2022-09-28T07:17:13.994Z,10.60
2022-09-28T07:19:42.613Z,11.55
2022-09-28T07:22:18.516Z,9.20
2022-09-28T07:24:47.934Z,8.90
2022-09-28T07:27:17.261Z,9.00
2022-09-28T07:29:45.128Z,8.68
2022-09-28T07:32:13.079Z,10.68
2022-09-28T07:34:43.807Z,10.45
2022-09-28T07:37:12.564Z,10.32
2022-09-28T07:39:54.757Z,11.95
2022-09-28T07:42:24.239Z,11.20
2022-09-28T07:44:52.786Z,11.20
2022-09-28T07:47:29.629Z,12.02
2022-09-28T07:50:00.870Z,12.77
2022-09-28T07:52:28.910Z,11.55
2022-09-28T07:54:57.730Z,10.90
2022-09-28T07:57:27.129Z,9.57
2022-09-28T07:59:55.473Z,9.20
2022-09-28T08:02:23.592Z,9.25
2022-09-28T08:04:51.767Z,7.75
2022-09-28T08:07:23.822Z,13.18
2022-09-28T08:09:52.243Z,9.85
2022-09-28T08:12:21.182Z,6.90
2022-09-28T08:14:52.266Z,8.38
2022-09-28T08:17:20.306Z,10.93
2022-09-28T08:20:05.449Z,6.85
2022-09-28T08:22:33.569Z,5.57
2022-09-28T08:25:01.449Z,5.18
2022-09-28T08:27:29.405Z,6.43
2022-09-28T08:29:58.675Z,5.00
2022-09-28T08:32:26.579Z,4.07
2022-09-28T08:34:56.020Z,3.85
2022-09-28T08:37:24.190Z,3.28
2022-09-28T08:39:52.245Z,3.25
2022-09-28T08:42:34.125Z,4.43
2022-09-28T08:45:09.026Z,3.20
2022-09-28T08:48:01.901Z,3.13
2022-09-28T08:50:33.706Z,3.38
2022-09-28T08:53:07.761Z,3.78
2022-09-28T08:55:38.950Z,3.70
2022-09-28T08:58:13.017Z,4.15
2022-09-28T09:00:47.018Z,3.05
2022-09-28T09:03:21.251Z,5.95
2022-09-28T09:06:00.311Z,4.75
2022-09-28T09:08:42.502Z,2.67
2022-09-28T09:11:22.163Z,2.80
2022-09-28T09:14:17.519Z,3.65
2022-09-28T09:17:00.370Z,3.33
2022-09-28T09:19:36.424Z,4.32
2022-09-28T09:22:15.525Z,2.65
2022-09-28T09:24:50.487Z,3.03
2022-09-28T09:27:42.575Z,3.15
2022-09-28T09:30:12.892Z,2.78
2022-09-28T09:33:08.309Z,3.30
2022-09-28T09:36:00.270Z,2.33
2022-09-28T09:38:46.709Z,3.47
2022-09-28T09:41:26.851Z,2.33
2022-09-28T09:44:39.826Z,3.00
2022-09-28T09:47:10.759Z,3.45
2022-09-28T09:49:44.391Z,1.95
2022-09-28T09:52:19.708Z,4.22
2022-09-28T09:54:52.454Z,1.98
2022-09-28T09:57:23.591Z,6.70
2022-09-28T09:59:51.640Z,3.95
2022-09-28T10:02:25.254Z,5.45
2022-09-28T10:04:58.635Z,3.15
2022-09-28T10:07:34.533Z,2.33
2022-09-28T10:10:04.396Z,2.90
2022-09-28T10:12:32.334Z,2.30
2022-09-28T10:15:02.985Z,2.05
2022-09-28T10:17:31.041Z,2.45
2022-09-28T10:20:00.315Z,2.58
2022-09-28T10:22:29.903Z,1.70
2022-09-28T10:24:59.275Z,1.70
2022-09-28T10:27:30.709Z,1.40
2022-09-28T10:30:03.688Z,2.05
2022-09-28T10:32:39.150Z,1.33
2022-09-28T10:35:24.925Z,1.70
2022-09-28T10:37:59.289Z,2.42
2022-09-28T10:40:41.490Z,1.60
2022-09-28T10:43:21.644Z,1.30
2022-09-28T10:45:49.932Z,1.83
2022-09-28T10:48:21.452Z,2.47
2022-09-28T10:51:09.247Z,1.35
2022-09-28T10:53:38.130Z,4.93
2022-09-28T10:56:09.524Z,1.38
2022-09-28T10:58:40.629Z,2.30
2022-09-28T11:01:11.895Z,1.17
2022-09-28T11:03:50.946Z,1.27
2022-09-28T11:06:28.223Z,1.15
2022-09-28T11:08:59.397Z,1.30
2022-09-28T11:11:28.743Z,3.15
2022-09-28T11:14:01.207Z,1.38
2022-09-28T11:16:30.901Z,2.05
2022-09-28T11:19:04.228Z,1.48
2022-09-28T11:21:42.945Z,2.47
2022-09-28T11:24:21.157Z,1.35
2022-09-28T11:26:53.779Z,1.10
2022-09-28T11:29:26.860Z,1.30
2022-09-28T11:32:00.203Z,2.05
2022-09-28T11:34:57.507Z,1.17
2022-09-28T11:37:57.296Z,1.52
2022-09-28T11:40:32.861Z,1.45
2022-09-28T11:43:15.760Z,0.85
2022-09-28T11:46:00.367Z,1.05
2022-09-28T11:48:35.924Z,0.70
2022-09-28T11:51:08.460Z,1.52
2022-09-28T11:53:41.732Z,1.13
2022-09-28T11:56:32.495Z,1.55
2022-09-28T11:59:05.167Z,1.15
2022-09-28T12:01:39.883Z,0.82
2022-09-28T12:04:14.911Z,1.17
2022-09-28T12:06:50.889Z,2.05
2022-09-28T12:09:24.015Z,0.98
2022-09-28T12:11:57.605Z,2.65
2022-09-28T12:14:30.107Z,1.77
2022-09-28T12:17:07.337Z,1.30
2022-09-28T12:19:41.189Z,1.00
2022-09-28T12:22:18.315Z,1.10
2022-09-28T12:24:52.072Z,4.07
2022-09-28T12:27:28.998Z,1.35
2022-09-28T12:30:03.297Z,0.98
2022-09-28T12:32:37.571Z,1.45
2022-09-28T12:35:13.167Z,1.17
2022-09-28T12:37:55.567Z,1.20
2022-09-28T12:43:31.233Z,1.25
2022-09-28T12:46:26.536Z,0.80
2022-09-28T12:50:01.795Z,1.45
2022-09-28T12:52:00.016Z,0.75
2022-09-28T12:55:04.113Z,0.80
2022-09-28T12:57:41.349Z,0.70
2022-09-28T13:00:13.187Z,2.35
2022-09-28T13:03:27.048Z,0.63
2022-09-28T13:06:20.992Z,0.80
2022-09-28T13:09:06.099Z,1.05
2022-09-28T13:11:42.255Z,1.38
2022-09-28T13:14:39.390Z,1.27
2022-09-28T13:17:20.353Z,2.45
2022-09-28T13:19:55.610Z,0.90
2022-09-28T13:22:34.035Z,0.85
2022-09-28T13:25:10.013Z,1.70
2022-09-28T13:27:41.388Z,1.02
2022-09-28T13:30:15.723Z,0.90
2022-09-28T13:32:45.084Z,2.03
2022-09-28T13:35:15.625Z,0.85
2022-09-28T13:37:43.494Z,1.10
2022-09-28T13:40:12.749Z,1.00
2022-09-28T13:42:59.892Z,0.57
2022-09-28T13:46:04.522Z,0.80
2022-09-28T13:48:46.076Z,0.77
2022-09-28T13:51:27.358Z,0.45
2022-09-28T13:54:17.343Z,0.77
2022-09-28T13:56:54.360Z,0.60
2022-09-28T13:59:27.216Z,0.93
2022-09-28T14:02:06.782Z,0.60
2022-09-28T14:04:57.634Z,0.70
2022-09-28T14:10:20.949Z,1.17
2022-09-28T14:12:51.365Z,0.63
2022-09-28T14:15:49.484Z,0.63
2022-09-28T14:18:39.547Z,0.95
2022-09-28T14:21:43.621Z,0.65
2022-09-28T14:24:26.672Z,0.75
2022-09-28T14:27:12.170Z,0.65
2022-09-28T14:29:41.267Z,1.20
2022-09-28T14:32:25.241Z,2.92
2022-09-28T14:35:00.801Z,1.25
2022-09-28T14:37:48.730Z,0.70
2022-09-28T14:40:39.784Z,0.65
2022-09-28T14:43:27.748Z,2.47
2022-09-28T14:46:32.172Z,1.45
2022-09-28T14:49:03.233Z,0.80
2022-09-28T14:52:03.349Z,0.52
2022-09-28T14:54:42.956Z,1.25
2022-09-28T14:57:18.553Z,2.42
2022-09-28T14:59:48.163Z,1.20
2022-09-28T15:02:27.491Z,1.98
2022-09-28T15:05:00.157Z,1.02
2022-09-28T15:07:34.333Z,0.85
2022-09-28T15:10:03.389Z,0.68
2022-09-28T15:12:32.481Z,0.68
2022-09-28T15:15:03.233Z,1.25
2022-09-28T15:17:39.293Z,1.65
2022-09-28T15:20:24.501Z,0.40
2022-09-28T15:22:57.598Z,0.70
2022-09-28T15:25:28.264Z,0.73
2022-09-28T15:27:58.526Z,0.60
2022-09-28T15:30:29.129Z,1.10
2022-09-28T15:33:18.502Z,1.23
2022-09-28T15:35:48.791Z,1.77
2022-09-28T15:38:18.546Z,0.50
2022-09-28T15:40:47.838Z,0.77
2022-09-28T15:43:26.932Z,1.63
2022-09-28T15:46:02.975Z,2.05
2022-09-28T15:48:34.483Z,1.33
2022-09-28T15:51:10.970Z,2.22
2022-09-28T15:53:48.447Z,1.52
2022-09-28T15:56:16.337Z,1.05
2022-09-28T15:58:44.783Z,1.58
2022-09-28T16:01:35.963Z,1.10
2022-09-28T16:04:39.436Z,1.30
2022-09-28T16:07:20.445Z,1.63
2022-09-28T16:10:02.791Z,4.70
2022-09-28T16:12:42.073Z,1.85
2022-09-28T16:15:18.194Z,1.85
2022-09-28T16:17:51.730Z,1.20
2022-09-28T16:20:28.595Z,3.30
2022-09-28T16:22:59.497Z,2.05
2022-09-28T16:25:28.845Z,1.35
2022-09-28T16:27:57.500Z,1.25
2022-09-28T16:30:29.046Z,2.03
2022-09-28T16:32:59.069Z,0.93
2022-09-28T16:35:29.869Z,4.97
2022-09-28T16:38:10.364Z,1.85
2022-09-28T16:40:43.030Z,2.53
2022-09-28T16:43:20.337Z,2.40
2022-09-28T16:45:48.321Z,1.50
2022-09-28T16:48:20.431Z,1.70
2022-09-28T16:50:48.298Z,1.52
2022-09-28T16:53:35.621Z,2.42
2022-09-28T16:56:06.096Z,0.77
2022-09-28T16:58:34.223Z,1.63
2022-09-28T17:01:02.284Z,1.38
2022-09-28T17:03:30.537Z,2.97
2022-09-28T17:05:58.558Z,5.28
2022-09-28T17:08:26.906Z,2.38
2022-09-28T17:11:13.943Z,2.50
2022-09-28T17:13:47.174Z,1.77
2022-09-28T17:16:17.911Z,2.22
2022-09-28T17:18:46.995Z,1.35
2022-09-28T17:21:18.107Z,1.20
2022-09-28T17:23:47.769Z,1.13
2022-09-28T17:26:21.812Z,1.67
2022-09-28T17:28:51.080Z,1.48
2022-09-28T17:31:19.034Z,1.00
2022-09-28T17:33:47.222Z,1.23
2022-09-28T17:36:17.353Z,1.33
2022-09-28T17:38:46.864Z,1.90
2022-09-28T17:41:20.206Z,1.30
2022-09-28T17:43:50.572Z,1.45
2022-09-28T17:46:27.610Z,1.42
2022-09-28T17:48:57.591Z,1.63
2022-09-28T17:51:25.588Z,1.23
2022-09-28T17:53:54.415Z,2.45
2022-09-28T17:56:22.330Z,2.80
2022-09-28T17:58:52.556Z,2.08
2022-09-28T18:01:21.067Z,2.40
2022-09-28T18:03:48.998Z,1.50
2022-09-28T18:06:19.754Z,1.30
2022-09-28T18:08:47.809Z,2.08
2022-09-28T18:11:15.917Z,1.73
2022-09-28T18:13:45.974Z,1.85
2022-09-28T18:16:15.887Z,1.98
2022-09-28T18:18:43.982Z,1.00
2022-09-28T18:21:12.364Z,1.52
2022-09-28T18:23:40.579Z,1.23
2022-09-28T18:26:12.086Z,1.40
2022-09-28T18:28:40.101Z,2.40
2022-09-28T18:31:08.746Z,4.22
2022-09-28T18:33:38.474Z,3.65
2022-09-28T18:36:07.420Z,3.72
2022-09-28T18:38:36.801Z,4.55
2022-09-28T18:41:10.185Z,3.85
2022-09-28T18:43:38.760Z,4.32
2022-09-28T18:46:09.402Z,3.15
2022-09-28T18:48:40.645Z,3.30
2022-09-28T18:51:10.115Z,3.88
2022-09-28T18:53:38.492Z,4.90
2022-09-28T18:56:08.352Z,3.60
2022-09-28T18:58:37.086Z,4.07
2022-09-28T19:01:29.074Z,3.72
2022-09-28T19:04:00.145Z,2.42
2022-09-28T19:06:28.806Z,4.45
2022-09-28T19:08:57.440Z,6.35
2022-09-28T19:11:26.712Z,3.90
2022-09-28T19:13:56.543Z,2.90
2022-09-28T19:16:26.192Z,2.75
2022-09-28T19:18:54.180Z,4.00
2022-09-28T19:21:23.843Z,2.60
2022-09-28T19:23:53.616Z,2.20
2022-09-28T19:26:23.865Z,6.72
2022-09-28T19:28:52.274Z,4.25
2022-09-28T19:31:21.597Z,1.90
2022-09-28T19:33:50.059Z,2.65
2022-09-28T19:36:21.906Z,1.95
2022-09-28T19:38:51.845Z,1.80
2022-09-28T19:41:38.997Z,1.98
2022-09-28T19:44:12.051Z,1.67
2022-09-28T19:46:40.817Z,4.40
2022-09-28T19:49:10.723Z,3.70
2022-09-28T19:51:51.513Z,2.10
2022-09-28T19:54:36.198Z,2.38
2022-09-28T19:57:07.742Z,1.35
2022-09-28T19:59:36.708Z,1.75
2022-09-28T20:02:05.304Z,2.53
2022-09-28T20:04:33.215Z,1.85
2022-09-28T20:07:01.868Z,2.03
2022-09-28T20:09:31.217Z,2.53
2022-09-28T20:11:59.188Z,3.72
2022-09-28T20:14:32.882Z,2.90
2022-09-28T20:17:04.541Z,1.70
2022-09-28T20:19:32.712Z,4.38
2022-09-28T20:22:02.870Z,1.63
2022-09-28T20:24:32.652Z,2.60
2022-09-28T20:27:01.492Z,4.03
2022-09-28T20:29:31.877Z,1.92
2022-09-28T20:32:00.489Z,2.22
2022-09-28T20:34:28.439Z,2.20
2022-09-28T20:36:56.344Z,2.15
2022-09-28T20:39:24.282Z,2.58
2022-09-28T20:41:54.010Z,4.75
2022-09-28T20:44:22.002Z,3.45
2022-09-28T20:46:51.421Z,1.77
2022-09-28T20:49:28.014Z,3.20
2022-09-28T20:51:55.958Z,1.77
2022-09-28T20:54:23.838Z,3.10
2022-09-28T20:56:53.132Z,2.33
2022-09-28T20:59:22.912Z,1.75
2022-09-28T21:01:51.089Z,2.38
2022-09-28T21:04:19.524Z,5.47
2022-09-28T21:06:47.522Z,3.05
2022-09-28T21:09:15.859Z,2.33
2022-09-28T21:11:43.727Z,3.30
2022-09-28T21:14:13.020Z,2.53
2022-09-28T21:16:40.999Z,3.88
2022-09-28T21:19:08.851Z,2.38
2022-09-28T21:21:36.775Z,3.80
2022-09-28T21:24:04.913Z,2.15
2022-09-28T21:26:33.176Z,3.35
2022-09-28T21:29:03.254Z,2.70
2022-09-28T21:31:37.844Z,3.70
2022-09-28T21:34:05.801Z,4.10
2022-09-28T21:36:34.429Z,3.22
2022-09-28T21:39:04.148Z,1.90
2022-09-28T21:41:35.221Z,3.22
2022-09-28T21:44:03.373Z,2.55
2022-09-28T21:46:34.304Z,2.53
2022-09-28T21:49:02.852Z,1.80
2022-09-28T21:51:31.511Z,3.00
2022-09-28T21:53:59.460Z,4.22
2022-09-28T21:56:27.827Z,2.70
2022-09-28T21:58:55.772Z,2.97
2022-09-28T22:01:26.095Z,2.60
2022-09-28T22:03:56.928Z,2.92
2022-09-28T22:06:27.953Z,2.83
2022-09-28T22:08:56.043Z,2.03
2022-09-28T22:11:25.820Z,3.00
2022-09-28T22:13:55.785Z,3.17
2022-09-28T22:16:25.653Z,2.97
2022-09-28T22:18:55.384Z,3.92
2022-09-28T22:21:24.710Z,2.65
2022-09-28T22:23:52.964Z,3.28
2022-09-28T22:26:23.502Z,2.83
2022-09-28T22:28:53.399Z,2.95
2022-09-28T22:31:24.137Z,1.73
2022-09-28T22:33:52.105Z,4.60
2022-09-28T22:36:21.697Z,2.20
2022-09-28T22:38:50.202Z,3.85
2022-09-28T22:41:20.873Z,2.15
2022-09-28T22:43:49.315Z,1.88
2022-09-28T22:46:19.356Z,3.67
2022-09-28T22:48:48.579Z,3.08
2022-09-28T22:51:16.991Z,2.67
2022-09-28T22:53:46.881Z,3.15
2022-09-28T22:56:18.757Z,2.45
2022-09-28T22:58:47.953Z,1.80
2022-09-28T23:01:18.526Z,2.42
2022-09-28T23:03:46.874Z,2.55
2022-09-28T23:06:17.405Z,2.20
2022-09-28T23:08:47.442Z,5.47
2022-09-28T23:11:16.150Z,1.90
2022-09-28T23:13:44.858Z,2.58
2022-09-28T23:16:14.926Z,2.20
2022-09-28T23:18:43.660Z,2.25
2022-09-28T23:21:13.446Z,2.92
2022-09-28T23:23:41.312Z,2.00
2022-09-28T23:26:16.116Z,3.08
2022-09-28T23:28:44.687Z,2.05
2022-09-28T23:31:15.263Z,3.55
2022-09-28T23:33:43.291Z,3.45
2022-09-28T23:36:11.411Z,2.47
2022-09-28T23:38:40.064Z,3.65
2022-09-28T23:41:08.450Z,3.55
2022-09-28T23:43:37.983Z,2.90
2022-09-28T23:46:06.569Z,3.67
2022-09-28T23:48:35.074Z,2.45
2022-09-28T23:51:04.027Z,2.45
2022-09-28T23:53:33.263Z,2.92
2022-09-28T23:56:01.541Z,2.50
2022-09-28T23:58:29.506Z,3.03
